Sabancı University Helipad

TR-0063 · Kocaeli, Turquía

METAR pasados TR-0063 · Sabancı University Helipad

A continuación puedes ver los METAR de los últimos días. Selecciona un año para ver los METAR más antiguos, desde el año 2007 en adelante.

16 de abril de 2024

Hora Código Tiempo Temp. Visibilidad Cielo nuboso Viento METAR/SPECI
13:50
V
28 °C 10 km+ - 260° 260° 13 kt METAR LTFJ 161050Z 26013KT CAVOK 28/08 Q1010 NOSIG RMK RWY24R 28014KT RWY06R 26013KT RWY24L 25014KT
13:20
V
27 °C 10 km+ - 260° 260° 11 kt METAR LTFJ 161020Z 26011KT 230V290 CAVOK 27/07 Q1010 NOSIG
12:50
V
27 °C 10 km+ - 250° 250° 10 kt METAR LTFJ 160950Z 25010KT CAVOK 27/07 Q1011 NOSIG RMK RWY24R 25011KT RWY06R 24011KT 220V280 RWY24L 24012KT
12:20
V
27 °C 10 km+ - 250° 250° 10 kt METAR LTFJ 160920Z 25010KT CAVOK 27/06 Q1011 NOSIG
11:50
V
27 °C 10 km+ - 260° 260° 8 kt METAR LTFJ 160850Z 26008KT 230V300 CAVOK 27/07 Q1011 NOSIG RMK RWY24R 26008KT RWY06R 24006KT 200V290 RWY24L 24008KT 210V270
11:20
V
26 °C 10 km+ - 230° 230° 7 kt METAR LTFJ 160820Z 23007KT CAVOK 26/06 Q1011 NOSIG
10:50
V
26 °C 10 km+ - 240° 240° 7 kt METAR LTFJ 160750Z 24007KT CAVOK 26/07 Q1011 NOSIG RMK RWY24R 23007KT RWY06R 21006KT RWY24L 22007KT 190V250
10:20
V
25 °C 10 km+ - 230° 230° 6 kt METAR LTFJ 160720Z 23006KT 100V260 CAVOK 25/07 Q1011 NOSIG
09:50
V
24 °C 10 km+ - 240° 240° 7 kt METAR LTFJ 160650Z 24007KT 120V260 CAVOK 24/07 Q1011 NOSIG RMK RWY24R 21008KT RWY06R 20007KT RWY24L 22008KT
09:20
V
23 °C 10 km+ - 240° 240° 6 kt METAR LTFJ 160620Z 24006KT 200V260 CAVOK 23/07 Q1011 NOSIG
08:50
V
23 °C 10 km+ - 240° 240° 6 kt METAR LTFJ 160550Z 24006KT CAVOK 23/07 Q1011 NOSIG RMK RWY24R 23008KT RWY06R 21006KT RWY24L 22005KT
08:20
V
21 °C 10 km+ - 230° 230° 5 kt METAR LTFJ 160520Z 23005KT CAVOK 21/07 Q1011 NOSIG
07:50
V
20 °C 10 km+ - 240° 240° 2 kt METAR LTFJ 160450Z 24002KT CAVOK 20/08 Q1011 NOSIG
07:20
V
19 °C 10 km+ - 270° 270° 3 kt METAR LTFJ 160420Z 27003KT 230V290 CAVOK 19/08 Q1011 NOSIG
06:50
V
17 °C 10 km+ - 250° 250° 2 kt METAR LTFJ 160350Z 25002KT CAVOK 17/08 Q1011 NOSIG RMK RWY24R VRB01KT RWY06R VRB01KT RWY24L VRB02KT
06:20
V
17 °C 10 km+ - 280° 280° 4 kt METAR LTFJ 160320Z 28004KT CAVOK 17/07 Q1011 NOSIG
05:50
V
17 °C 10 km+ - 270° 270° 4 kt METAR LTFJ 160250Z 27004KT CAVOK 17/08 Q1011 NOSIG RMK RWY24R 26003KT 190V280 RWY06R 27003KT 240V300 RWY24L VRB01KT
05:20
V
18 °C 10 km+ - 270° 270° 3 kt METAR LTFJ 160220Z 27003KT 230V300 CAVOK 18/08 Q1011 NOSIG
04:50
V
18 °C 10 km+ - Var Var 1 kt METAR LTFJ 160150Z VRB01KT CAVOK 18/08 Q1011 NOSIG RMK RWY24R 29002KT RWY06R VRB01KT RWY24L VRB01KT
04:20
V
18 °C 10 km+ - 050° 050° 2 kt METAR LTFJ 160120Z 05002KT CAVOK 18/09 Q1011 NOSIG
03:50
V
19 °C 10 km+ - Var Var 1 kt METAR LTFJ 160050Z VRB01KT CAVOK 19/08 Q1012 NOSIG RMK RWY24R 00000KT RWY06R 33002KT RWY24L VRB02KT
03:20
V
18 °C 10 km+ - 300° 300° 4 kt METAR LTFJ 160020Z 30004KT CAVOK 18/08 Q1012 NOSIG
02:50
V
19 °C 10 km+ - 270° 270° 4 kt METAR LTFJ 152350Z 27004KT 240V300 CAVOK 19/08 Q1012 NOSIG RMK RWY24R 28005KT 240V300 RWY06R 26003KT RWY24L VRB02KT
02:20
V
17 °C 10 km+ - Var Var 1 kt METAR LTFJ 152320Z VRB01KT CAVOK 17/08 Q1012 NOSIG
01:50
V
19 °C 10 km+ - Var Var 2 kt METAR LTFJ 152250Z VRB02KT CAVOK 19/08 Q1012 NOSIG RMK RWY24R 00000KT RWY06R 00000KT RWY24L 13003KT 040V150
01:20
V
20 °C 10 km+ - Var Var 2 kt METAR LTFJ 152220Z VRB02KT CAVOK 20/08 Q1013 NOSIG
00:50
V
18 °C 10 km+ - 300° 300° 4 kt METAR LTFJ 152150Z 30004KT CAVOK 18/08 Q1013 NOSIG RMK RWY24R 28004KT RWY06R 30004KT RWY24L VRB01KT
00:20
V
19 °C 10 km+ - Var Var 1 kt METAR LTFJ 152120Z VRB01KT CAVOK 19/08 Q1013 NOSIG

15 de abril de 2024

Hora Código Tiempo Temp. Visibilidad Cielo nuboso Viento METAR/SPECI
23:50
V
19 °C 10 km+ - Var Var 2 kt METAR LTFJ 152050Z VRB02KT CAVOK 19/09 Q1014 NOSIG RMK RWY24R 16002KT RWY06R 12002KT RWY24L 16003KT
23:20
V
20 °C 10 km+ - Var Var 1 kt METAR LTFJ 152020Z VRB01KT CAVOK 20/08 Q1014 NOSIG
22:50
V
20 °C 10 km+ - Var Var 2 kt METAR LTFJ 151950Z VRB02KT CAVOK 20/08 Q1014 NOSIG RMK RWY24R VRB01KT RWY06R 29003KT RWY24L 11001KT
22:20
V
20 °C 10 km+ - 300° 300° 2 kt METAR LTFJ 151920Z 30002KT CAVOK 20/09 Q1014 NOSIG
21:50
V
20 °C 10 km+ - 300° 300° 2 kt METAR LTFJ 151850Z 30002KT CAVOK 20/09 Q1014 NOSIG RMK RWY24R 25002KT RWY06R 32002KT RWY24L 28002KT
21:20
V
20 °C 10 km+ - Var Var 2 kt METAR LTFJ 151820Z VRB02KT CAVOK 20/09 Q1015 NOSIG
20:50
V
22 °C 10 km+ - 120° 120° 2 kt METAR LTFJ 151750Z 12002KT CAVOK 22/08 Q1015 NOSIG RMK RWY24R VRB02KT RWY06R 10003KT 080V140 RWY24L 13005KT
20:20
V
22 °C 10 km+ - Var Var 2 kt METAR LTFJ 151720Z VRB02KT CAVOK 22/09 Q1015 NOSIG
19:50
V
22 °C 10 km+ - 250° 250° 3 kt METAR LTFJ 151650Z 25003KT CAVOK 22/09 Q1015 NOSIG RMK RWY24R 23004KT RWY06R 23004KT RWY24L 23005KT
19:20
V
23 °C 10 km+ - 240° 240° 5 kt METAR LTFJ 151620Z 24005KT CAVOK 23/09 Q1015 NOSIG
18:50
V
25 °C 10 km+ - 240° 240° 5 kt METAR LTFJ 151550Z 24005KT CAVOK 25/08 Q1015 NOSIG RMK RWY24R 24006KT RWY06R 23006KT RWY24L 23006KT
18:20
V
25 °C 10 km+ - 240° 240° 5 kt METAR LTFJ 151520Z 24005KT CAVOK 25/08 Q1015 NOSIG
17:50
V
26 °C 10 km+ - 250° 250° 5 kt METAR LTFJ 151450Z 25005KT CAVOK 26/08 Q1016 NOSIG RMK RWY24R 25005KT 230V290 RWY06R 24004KT 210V270 RWY24L 23005KT
17:20
V
26 °C 10 km+ - 230° 230° 6 kt METAR LTFJ 151420Z 23006KT CAVOK 26/08 Q1016 NOSIG
16:50
V
26 °C 10 km+ - 250° 250° 6 kt METAR LTFJ 151350Z 25006KT CAVOK 26/08 Q1016 NOSIG RMK RWY24R 25006KT 210V290 RWY06R 22007KT RWY24L 21007KT 190V250
16:20
V
26 °C 10 km+ - 240° 240° 7 kt METAR LTFJ 151320Z 24007KT CAVOK 26/07 Q1017 NOSIG
15:50
V
26 °C 10 km+ - 240° 240° 7 kt METAR LTFJ 151250Z 24007KT CAVOK 26/07 Q1017 NOSIG RMK RWY24R 25006KT RWY06R 23007KT 190V270 RWY24L 23007KT 200V270
15:20
V
25 °C 10 km+ - 260° 260° 8 kt METAR LTFJ 151220Z 26008KT CAVOK 25/07 Q1018 NOSIG
14:50
V
25 °C 10 km+ - 250° 250° 8 kt METAR LTFJ 151150Z 25008KT 230V290 CAVOK 25/08 Q1018 NOSIG RMK RWY24R 24009KT RWY06R 22008KT RWY24L 22009KT
14:20
V
25 °C 10 km+ - 240° 240° 9 kt METAR LTFJ 151120Z 24009KT CAVOK 25/07 Q1019 NOSIG
13:50
V
26 °C 10 km+ - 240° 240° 8 kt METAR LTFJ 151050Z 24008KT 210V270 CAVOK 26/07 Q1019 NOSIG RMK RWY24R 25009KT RWY06R 23009KT RWY24L 22009KT
13:20
V
25 °C 10 km+ - 250° 250° 8 kt METAR LTFJ 151020Z 25008KT CAVOK 25/08 Q1019 NOSIG
12:50
V
25 °C 10 km+ - 250° 250° 8 kt METAR LTFJ 150950Z 25008KT 230V290 CAVOK 25/08 Q1019 NOSIG RMK RWY24R 24008KT RWY06R 24008KT 200V260 RWY24L 22008KT
12:20
V
24 °C 10 km+ - 250° 250° 7 kt METAR LTFJ 150920Z 25007KT CAVOK 24/07 Q1020 NOSIG
11:50
V
23 °C 10 km+ - 250° 250° 8 kt METAR LTFJ 150850Z 25008KT CAVOK 23/07 Q1020 NOSIG RMK RWY24R 24009KT RWY06R 23008KT 210V270 RWY24L 23008KT 200V260
11:20
V
22 °C 10 km+ - 240° 240° 7 kt METAR LTFJ 150820Z 24007KT CAVOK 22/07 Q1020 NOSIG
10:50
V
22 °C 10 km+ - 240° 240° 6 kt METAR LTFJ 150750Z 24006KT CAVOK 22/07 Q1020 NOSIG RMK RWY24R 23006KT RWY06R 23005KT RWY24L 23005KT 180V260
10:20
V
21 °C 10 km+ - 250° 250° 7 kt METAR LTFJ 150720Z 25007KT CAVOK 21/08 Q1020 NOSIG
09:50
V
20 °C 10 km+ - 240° 240° 5 kt METAR LTFJ 150650Z 24005KT 100V260 CAVOK 20/08 Q1020 NOSIG RMK RWY24R 25005KT RWY06R 22005KT 180V240 RWY24L 24004KT
09:20
V
19 °C 10 km+ - 170° 170° 5 kt METAR LTFJ 150620Z 17005KT 100V260 CAVOK 19/08 Q1020 NOSIG
08:50
V
18 °C 10 km+ - 200° 200° 4 kt METAR LTFJ 150550Z 20004KT 100V260 CAVOK 18/08 Q1020 NOSIG RMK RWY24R 23004KT RWY06R 22003KT 180V270 RWY24L 25003KT 210V290
08:20
V
17 °C 10 km+ - 360° 360° 0 kt METAR LTFJ 150520Z 00000KT CAVOK 17/09 Q1020 NOSIG
07:50
V
16 °C 10 km+ - 360° 360° 0 kt METAR LTFJ 150450Z 00000KT CAVOK 16/09 Q1020 NOSIG
07:20
V
14 °C 10 km+ - 240° 240° 2 kt METAR LTFJ 150420Z 24002KT CAVOK 14/08 Q1020 NOSIG
06:50
V
13 °C 10 km+ - 270° 270° 2 kt METAR LTFJ 150350Z 27002KT CAVOK 13/08 Q1020 NOSIG RMK RWY24R 00000KT RWY06R 00000KT RWY24L 12001KT
06:20
V
13 °C 10 km+ - 360° 360° 0 kt METAR LTFJ 150320Z 00000KT CAVOK 13/08 Q1020 NOSIG
05:50
V
14 °C 10 km+ - 360° 360° 0 kt METAR LTFJ 150250Z 00000KT CAVOK 14/08 Q1020 NOSIG RMK RWY24R 11002KT RWY06R 06002KT RWY24L 09003KT
05:20
V
13 °C 10 km+ - Var Var 1 kt METAR LTFJ 150220Z VRB01KT CAVOK 13/08 Q1020 NOSIG
04:50
V
14 °C 10 km+ - 050° 050° 2 kt METAR LTFJ 150150Z 05002KT CAVOK 14/08 Q1020 NOSIG RMK RWY24R 01001KT RWY06R 00000KT RWY24L 33003KT
04:20
V
12 °C 10 km+ - 050° 050° 3 kt METAR LTFJ 150120Z 05003KT CAVOK 12/08 Q1020 NOSIG
03:50
V
14 °C 10 km+ - 360° 360° 0 kt METAR LTFJ 150050Z 00000KT CAVOK 14/07 Q1020 NOSIG RMK RWY24R 09002KT RWY06R 08001KT RWY24L VRB02KT
03:20
V
14 °C 10 km+ - 290° 290° 3 kt METAR LTFJ 150020Z 29003KT CAVOK 14/07 Q1020 NOSIG
02:50
V
14 °C 10 km+ - 360° 360° 0 kt METAR LTFJ 142350Z 00000KT CAVOK 14/07 Q1020 NOSIG RMK RWY24R 00000KT RWY06R 00000KT RWY24L 00000KT
02:20
V
15 °C 10 km+ - 360° 360° 0 kt METAR LTFJ 142320Z 00000KT CAVOK 15/09 Q1020 NOSIG
01:50
V
15 °C 10 km+ - 360° 360° 0 kt METAR LTFJ 142250Z 00000KT CAVOK 15/10 Q1020 NOSIG RMK RWY24R 00000KT RWY06R 00000KT RWY24L 09001KT
01:20
V
15 °C 10 km+ - 360° 360° 0 kt METAR LTFJ 142220Z 00000KT CAVOK 15/10 Q1021 NOSIG
00:50
V
15 °C 10 km+ - 360° 360° 0 kt METAR LTFJ 142150Z 00000KT CAVOK 15/11 Q1021 NOSIG RMK RWY24R 12002KT RWY06R 07002KT RWY24L 11003KT
00:20
V
15 °C 10 km+ - 360° 360° 0 kt METAR LTFJ 142120Z 00000KT CAVOK 15/11 Q1021 NOSIG

14 de abril de 2024

Hora Código Tiempo Temp. Visibilidad Cielo nuboso Viento METAR/SPECI
23:50
V
15 °C 10 km+ - 360° 360° 0 kt METAR LTFJ 142050Z 00000KT CAVOK 15/11 Q1021 NOSIG RMK RWY24R 17001KT RWY06R 16001KT RWY24L 13003KT
23:20
V
15 °C 10 km+ - 360° 360° 0 kt METAR LTFJ 142020Z 00000KT CAVOK 15/12 Q1021 NOSIG
22:50
V
15 °C 10 km+ - 250° 250° 3 kt METAR LTFJ 141950Z 25003KT CAVOK 15/12 Q1021 NOSIG RMK RWY24R 25004KT RWY06R 25003KT RWY24L VRB01KT
22:20
V
16 °C 10 km+ - 360° 360° 0 kt METAR LTFJ 141920Z 00000KT CAVOK 16/09 Q1021 NOSIG
21:50
V
18 °C 10 km+ - Var Var 1 kt METAR LTFJ 141850Z VRB01KT CAVOK 18/08 Q1021 NOSIG RMK RWY24R 24001KT RWY06R 00000KT RWY24L VRB02KT
21:20
V
17 °C 10 km+ - Var Var 2 kt METAR LTFJ 141820Z VRB02KT CAVOK 17/08 Q1021 NOSIG
20:50
V
18 °C 10 km+ - 240° 240° 3 kt METAR LTFJ 141750Z 24003KT 100V260 CAVOK 18/09 Q1021 NOSIG RMK RWY24R VRB01KT RWY06R 16001KT RWY24L 13003KT
20:20
V
18 °C 10 km+ - 230° 230° 3 kt METAR LTFJ 141720Z 23003KT 100V260 CAVOK 18/09 Q1021 NOSIG
19:50
V
18 °C 10 km+ - 240° 240° 3 kt METAR LTFJ 141650Z 24003KT 160V260 CAVOK 18/08 Q1021 NOSIG RMK RWY24R VRB03KT RWY06R 22004KT RWY24L 22004KT 160V270
19:20
V
20 °C 10 km+ - 240° 240° 5 kt METAR LTFJ 141620Z 24005KT 170V260 CAVOK 20/07 Q1021 NOSIG
18:50
V
21 °C 10 km+ - 240° 240° 5 kt METAR LTFJ 141550Z 24005KT 160V260 CAVOK 21/07 Q1021 NOSIG RMK RWY24R VRB01KT RWY06R 22006KT RWY24L 22006KT 180V240
18:20
V
22 °C 10 km+ - 230° 230° 5 kt METAR LTFJ 141520Z 23005KT CAVOK 22/06 Q1021 NOSIG
17:50
V
22 °C 10 km+ - 240° 240° 7 kt METAR LTFJ 141450Z 24007KT CAVOK 22/07 Q1021 NOSIG RMK RWY24R 22007KT RWY06R 21008KT RWY24L 23007KT
17:20
V
22 °C 10 km+ - 230° 230° 6 kt METAR LTFJ 141420Z 23006KT 100V260 CAVOK 22/07 Q1021 NOSIG
16:50
V
22 °C 10 km+ - 230° 230° 7 kt METAR LTFJ 141350Z 23007KT CAVOK 22/06 Q1021 NOSIG RMK RWY24R 22008KT RWY06R 22007KT RWY24L 23008KT
16:20
V
22 °C 10 km+ - 240° 240° 8 kt METAR LTFJ 141320Z 24008KT CAVOK 22/07 Q1021 NOSIG
15:50
V
21 °C 10 km+ - 230° 230° 9 kt METAR LTFJ 141250Z 23009KT CAVOK 21/08 Q1021 NOSIG RMK RWY24R 23010KT RWY06R 22010KT RWY24L 23010KT
15:20
V
21 °C 10 km+ - 230° 230° 9 kt METAR LTFJ 141220Z 23009KT CAVOK 21/07 Q1021 NOSIG
14:50
V
21 °C 10 km+ - 230° 230° 10 kt METAR LTFJ 141150Z 23010KT CAVOK 21/06 Q1022 NOSIG RMK RWY24R 24009KT RWY06R 22011KT RWY24L 23010KT
14:20
V
21 °C 10 km+ - 230° 230° 11 kt METAR LTFJ 141120Z 23011KT CAVOK 21/05 Q1022 NOSIG
13:50
V
22 °C 10 km+ - 230° 230° 11 kt METAR LTFJ 141050Z 23011KT CAVOK 22/07 Q1022 NOSIG RMK RWY24R 24012KT RWY06R 22012KT RWY24L 22012KT
13:20
V
21 °C 10 km+ - 230° 230° 10 kt METAR LTFJ 141020Z 23010KT CAVOK 21/07 Q1022 NOSIG
12:50
V
22 °C 10 km+ - 240° 240° 8 kt METAR LTFJ 140950Z 24008KT CAVOK 22/08 Q1022 NOSIG RMK RWY24R 23007KT 200V270 RWY06R 24009KT RWY24L 22010KT
12:20
V
21 °C 10 km+ - 230° 230° 9 kt METAR LTFJ 140920Z 23009KT CAVOK 21/08 Q1022 NOSIG
11:50
V
20 °C 10 km+ - 230° 230° 8 kt METAR LTFJ 140850Z 23008KT CAVOK 20/08 Q1023 NOSIG RMK RWY24R 26005KT 190V280 RWY06R 22009KT RWY24L VRB06KT
11:20
V
20 °C 10 km+ - Var Var 4 kt METAR LTFJ 140820Z VRB04KT CAVOK 20/08 Q1023 NOSIG
10:50
V
20 °C 10 km+ - Var Var 3 kt METAR LTFJ 140750Z VRB03KT CAVOK 20/05 Q1023 NOSIG RMK RWY24R 01003KT 310V060 RWY06R VRB02KT RWY24L VRB02KT
10:20
V
19 °C 10 km+ - Var Var 3 kt METAR LTFJ 140720Z VRB03KT CAVOK 19/04 Q1023 NOSIG
09:50
V
18 °C 10 km+ - 060° 060° 4 kt METAR LTFJ 140650Z 06004KT 300V110 CAVOK 18/07 Q1023 NOSIG RMK RWY24R VRB02KT RWY06R VRB01KT RWY24L VRB02KT
09:20
V
16 °C 10 km+ - 060° 060° 4 kt METAR LTFJ 140620Z 06004KT CAVOK 16/09 Q1023 NOSIG
08:50
V
15 °C 10 km+ - 060° 060° 5 kt METAR LTFJ 140550Z 06005KT CAVOK 15/10 Q1023 NOSIG RMK RWY24R 06003KT 010V110 RWY06R 07003KT RWY24L VRB02KT
Cambiar esta información